sensor_id;sensor_type;location;lat;lon;timestamp;temperature;humidity
439;DHT22;206;48.782;9.252;2023-05-10T00:00:37;17.30;78.30
439;DHT22;206;48.782;9.252;2023-05-10T00:03:02;17.20;75.20
439;DHT22;206;48.782;9.252;2023-05-10T00:05:30;17.20;76.50
439;DHT22;206;48.782;9.252;2023-05-10T00:07:56;17.20;75.30
439;DHT22;206;48.782;9.252;2023-05-10T00:10:21;17.10;74.70
439;DHT22;206;48.782;9.252;2023-05-10T00:12:47;17.10;73.10
439;DHT22;206;48.782;9.252;2023-05-10T00:15:12;17.00;73.80
439;DHT22;206;48.782;9.252;2023-05-10T00:17:38;17.00;74.60
439;DHT22;206;48.782;9.252;2023-05-10T00:20:04;16.90;74.90
439;DHT22;206;48.782;9.252;2023-05-10T00:22:30;16.80;75.20
439;DHT22;206;48.782;9.252;2023-05-10T00:24:57;16.80;75.80
439;DHT22;206;48.782;9.252;2023-05-10T00:27:22;16.80;76.00
439;DHT22;206;48.782;9.252;2023-05-10T00:29:49;16.80;75.80
439;DHT22;206;48.782;9.252;2023-05-10T00:32:14;16.80;77.60
439;DHT22;206;48.782;9.252;2023-05-10T00:34:40;16.70;75.40
439;DHT22;206;48.782;9.252;2023-05-10T00:37:05;16.70;75.50
439;DHT22;206;48.782;9.252;2023-05-10T00:39:31;16.70;75.10
439;DHT22;206;48.782;9.252;2023-05-10T00:41:57;16.70;73.30
439;DHT22;206;48.782;9.252;2023-05-10T00:44:22;16.60;70.10
439;DHT22;206;48.782;9.252;2023-05-10T00:46:48;16.60;68.90
439;DHT22;206;48.782;9.252;2023-05-10T00:49:15;16.50;67.90
439;DHT22;206;48.782;9.252;2023-05-10T00:51:41;16.50;67.70
439;DHT22;206;48.782;9.252;2023-05-10T00:54:09;16.50;69.10
439;DHT22;206;48.782;9.252;2023-05-10T00:56:36;16.40;68.00
439;DHT22;206;48.782;9.252;2023-05-10T00:59:02;16.40;67.90
439;DHT22;206;48.782;9.252;2023-05-10T01:01:28;16.30;66.20
439;DHT22;206;48.782;9.252;2023-05-10T01:03:54;16.20;68.20
439;DHT22;206;48.782;9.252;2023-05-10T01:06:20;16.10;68.70
439;DHT22;206;48.782;9.252;2023-05-10T01:08:46;16.00;69.80
439;DHT22;206;48.782;9.252;2023-05-10T01:11:13;16.00;70.20
439;DHT22;206;48.782;9.252;2023-05-10T01:13:40;15.90;70.10
439;DHT22;206;48.782;9.252;2023-05-10T01:16:07;15.80;71.60
439;DHT22;206;48.782;9.252;2023-05-10T01:18:36;15.80;71.00
439;DHT22;206;48.782;9.252;2023-05-10T01:21:23;15.80;71.10
439;DHT22;206;48.782;9.252;2023-05-10T01:29:49;15.60;73.40
439;DHT22;206;48.782;9.252;2023-05-10T01:35:14;15.50;73.20
439;DHT22;206;48.782;9.252;2023-05-10T01:37:52;15.60;75.20
439;DHT22;206;48.782;9.252;2023-05-10T01:40:30;15.70;74.40
439;DHT22;206;48.782;9.252;2023-05-10T01:43:02;15.70;74.60
439;DHT22;206;48.782;9.252;2023-05-10T01:45:39;15.70;71.40
439;DHT22;206;48.782;9.252;2023-05-10T01:48:09;15.70;72.40
439;DHT22;206;48.782;9.252;2023-05-10T01:50:37;15.70;69.60
439;DHT22;206;48.782;9.252;2023-05-10T01:53:06;15.70;69.90
439;DHT22;206;48.782;9.252;2023-05-10T01:55:35;15.60;71.50
439;DHT22;206;48.782;9.252;2023-05-10T01:58:13;15.60;71.90
439;DHT22;206;48.782;9.252;2023-05-10T02:00:42;15.50;70.70
439;DHT22;206;48.782;9.252;2023-05-10T02:03:09;15.50;71.30
439;DHT22;206;48.782;9.252;2023-05-10T02:05:36;15.40;72.10
439;DHT22;206;48.782;9.252;2023-05-10T02:08:05;15.40;73.10
439;DHT22;206;48.782;9.252;2023-05-10T02:10:35;15.40;72.50
439;DHT22;206;48.782;9.252;2023-05-10T02:13:02;15.30;73.00
439;DHT22;206;48.782;9.252;2023-05-10T02:15:29;15.30;74.30
439;DHT22;206;48.782;9.252;2023-05-10T02:17:56;15.30;75.70
439;DHT22;206;48.782;9.252;2023-05-10T02:20:23;15.30;80.60
439;DHT22;206;48.782;9.252;2023-05-10T02:22:51;15.30;80.10
439;DHT22;206;48.782;9.252;2023-05-10T02:25:19;15.30;78.80
439;DHT22;206;48.782;9.252;2023-05-10T02:27:46;15.30;81.60
439;DHT22;206;48.782;9.252;2023-05-10T02:30:13;15.30;80.60
439;DHT22;206;48.782;9.252;2023-05-10T02:32:39;15.40;80.30
439;DHT22;206;48.782;9.252;2023-05-10T02:35:06;15.40;79.90
439;DHT22;206;48.782;9.252;2023-05-10T02:37:33;15.40;80.50
439;DHT22;206;48.782;9.252;2023-05-10T02:40:00;15.50;80.20
439;DHT22;206;48.782;9.252;2023-05-10T02:42:29;15.50;79.90
439;DHT22;206;48.782;9.252;2023-05-10T02:45:00;15.50;80.60
439;DHT22;206;48.782;9.252;2023-05-10T02:47:27;15.60;80.40
439;DHT22;206;48.782;9.252;2023-05-10T02:49:52;15.60;78.10
439;DHT22;206;48.782;9.252;2023-05-10T02:52:32;15.70;77.50
439;DHT22;206;48.782;9.252;2023-05-10T02:55:02;15.70;76.20
439;DHT22;206;48.782;9.252;2023-05-10T02:57:32;15.70;74.90
439;DHT22;206;48.782;9.252;2023-05-10T02:59:59;15.70;74.10
439;DHT22;206;48.782;9.252;2023-05-10T03:02:26;15.70;73.40
439;DHT22;206;48.782;9.252;2023-05-10T03:04:52;15.80;71.80
439;DHT22;206;48.782;9.252;2023-05-10T03:07:17;15.80;71.90
439;DHT22;206;48.782;9.252;2023-05-10T03:09:47;15.80;73.50
439;DHT22;206;48.782;9.252;2023-05-10T03:15:25;15.80;71.80
439;DHT22;206;48.782;9.252;2023-05-10T03:18:15;15.80;72.60
439;DHT22;206;48.782;9.252;2023-05-10T03:21:04;15.80;71.50
439;DHT22;206;48.782;9.252;2023-05-10T03:23:40;15.80;71.50
439;DHT22;206;48.782;9.252;2023-05-10T03:26:07;15.80;71.60
439;DHT22;206;48.782;9.252;2023-05-10T03:28:35;15.80;71.60
439;DHT22;206;48.782;9.252;2023-05-10T03:31:02;15.90;70.80
439;DHT22;206;48.782;9.252;2023-05-10T03:33:29;15.90;71.40
439;DHT22;206;48.782;9.252;2023-05-10T03:35:55;15.90;70.30
439;DHT22;206;48.782;9.252;2023-05-10T03:38:20;15.80;70.90
439;DHT22;206;48.782;9.252;2023-05-10T03:40:46;15.80;71.40
439;DHT22;206;48.782;9.252;2023-05-10T03:43:11;15.80;72.00
439;DHT22;206;48.782;9.252;2023-05-10T03:45:37;15.80;72.10
439;DHT22;206;48.782;9.252;2023-05-10T03:48:03;15.80;71.60
439;DHT22;206;48.782;9.252;2023-05-10T03:50:28;15.80;70.60
439;DHT22;206;48.782;9.252;2023-05-10T03:52:54;15.80;70.10
439;DHT22;206;48.782;9.252;2023-05-10T03:55:20;15.70;70.20
439;DHT22;206;48.782;9.252;2023-05-10T03:57:46;15.70;71.00
439;DHT22;206;48.782;9.252;2023-05-10T04:00:12;15.70;72.60
439;DHT22;206;48.782;9.252;2023-05-10T04:02:37;15.70;69.10
439;DHT22;206;48.782;9.252;2023-05-10T04:05:03;15.70;71.20
439;DHT22;206;48.782;9.252;2023-05-10T04:07:29;15.70;73.70
439;DHT22;206;48.782;9.252;2023-05-10T04:09:54;15.70;72.20
439;DHT22;206;48.782;9.252;2023-05-10T04:12:20;15.70;71.20
439;DHT22;206;48.782;9.252;2023-05-10T04:14:45;15.70;70.70
439;DHT22;206;48.782;9.252;2023-05-10T04:17:11;15.70;68.90
439;DHT22;206;48.782;9.252;2023-05-10T04:19:36;15.70;69.40
439;DHT22;206;48.782;9.252;2023-05-10T04:22:02;15.80;69.40
439;DHT22;206;48.782;9.252;2023-05-10T04:24:28;15.80;69.20
439;DHT22;206;48.782;9.252;2023-05-10T04:26:54;15.90;67.70
439;DHT22;206;48.782;9.252;2023-05-10T04:29:20;15.90;66.70
439;DHT22;206;48.782;9.252;2023-05-10T04:31:45;15.90;66.10
439;DHT22;206;48.782;9.252;2023-05-10T04:34:11;15.90;65.50
439;DHT22;206;48.782;9.252;2023-05-10T04:36:36;15.90;65.10
439;DHT22;206;48.782;9.252;2023-05-10T04:39:03;16.00;67.00
439;DHT22;206;48.782;9.252;2023-05-10T04:41:29;16.00;66.90
439;DHT22;206;48.782;9.252;2023-05-10T04:43:55;16.10;66.90
439;DHT22;206;48.782;9.252;2023-05-10T04:46:20;16.20;66.10
439;DHT22;206;48.782;9.252;2023-05-10T04:48:46;16.30;66.80
439;DHT22;206;48.782;9.252;2023-05-10T04:51:12;16.30;64.30
439;DHT22;206;48.782;9.252;2023-05-10T04:53:37;16.30;63.20
439;DHT22;206;48.782;9.252;2023-05-10T04:56:03;16.40;63.20
439;DHT22;206;48.782;9.252;2023-05-10T04:58:29;16.50;63.70
439;DHT22;206;48.782;9.252;2023-05-10T05:00:55;16.50;64.10
439;DHT22;206;48.782;9.252;2023-05-10T05:03:20;16.50;64.10
439;DHT22;206;48.782;9.252;2023-05-10T05:05:46;16.50;63.20
439;DHT22;206;48.782;9.252;2023-05-10T05:08:11;16.60;61.80
439;DHT22;206;48.782;9.252;2023-05-10T05:10:38;16.60;62.00
439;DHT22;206;48.782;9.252;2023-05-10T05:13:06;16.70;61.40
439;DHT22;206;48.782;9.252;2023-05-10T05:15:31;16.80;61.30
439;DHT22;206;48.782;9.252;2023-05-10T05:17:57;16.90;60.50
439;DHT22;206;48.782;9.252;2023-05-10T05:20:22;17.10;60.30
439;DHT22;206;48.782;9.252;2023-05-10T05:22:48;17.20;59.10
439;DHT22;206;48.782;9.252;2023-05-10T05:25:14;17.30;57.50
439;DHT22;206;48.782;9.252;2023-05-10T05:27:40;17.40;58.00
439;DHT22;206;48.782;9.252;2023-05-10T05:30:06;17.50;56.60
439;DHT22;206;48.782;9.252;2023-05-10T05:32:32;17.60;54.70
439;DHT22;206;48.782;9.252;2023-05-10T05:34:58;17.50;54.40
439;DHT22;206;48.782;9.252;2023-05-10T05:37:24;17.50;55.20
439;DHT22;206;48.782;9.252;2023-05-10T05:39:50;17.50;56.10
439;DHT22;206;48.782;9.252;2023-05-10T05:42:15;17.50;56.30
439;DHT22;206;48.782;9.252;2023-05-10T05:44:43;17.50;56.40
439;DHT22;206;48.782;9.252;2023-05-10T05:47:08;17.60;56.00
439;DHT22;206;48.782;9.252;2023-05-10T05:49:34;17.70;54.70
439;DHT22;206;48.782;9.252;2023-05-10T05:52:00;17.80;54.40
439;DHT22;206;48.782;9.252;2023-05-10T05:54:26;17.80;54.00
439;DHT22;206;48.782;9.252;2023-05-10T05:56:59;17.90;53.40
439;DHT22;206;48.782;9.252;2023-05-10T05:59:25;18.00;50.80
439;DHT22;206;48.782;9.252;2023-05-10T06:01:50;18.10;50.90
439;DHT22;206;48.782;9.252;2023-05-10T06:04:16;18.20;51.00
439;DHT22;206;48.782;9.252;2023-05-10T06:06:42;18.30;49.60
439;DHT22;206;48.782;9.252;2023-05-10T06:09:08;18.30;49.30
439;DHT22;206;48.782;9.252;2023-05-10T06:11:35;18.30;49.30
439;DHT22;206;48.782;9.252;2023-05-10T06:14:01;18.30;48.50
439;DHT22;206;48.782;9.252;2023-05-10T06:16:27;18.20;48.60
439;DHT22;206;48.782;9.252;2023-05-10T06:18:53;18.20;48.00
439;DHT22;206;48.782;9.252;2023-05-10T06:21:18;18.20;48.50
439;DHT22;206;48.782;9.252;2023-05-10T06:23:44;18.10;48.80
439;DHT22;206;48.782;9.252;2023-05-10T06:26:10;18.20;49.80
439;DHT22;206;48.782;9.252;2023-05-10T06:28:36;18.20;50.50
439;DHT22;206;48.782;9.252;2023-05-10T06:31:04;18.30;50.40
439;DHT22;206;48.782;9.252;2023-05-10T06:33:29;18.30;49.60
439;DHT22;206;48.782;9.252;2023-05-10T06:35:55;18.40;49.30
439;DHT22;206;48.782;9.252;2023-05-10T06:38:21;18.40;48.70
439;DHT22;206;48.782;9.252;2023-05-10T06:40:47;18.40;47.40
439;DHT22;206;48.782;9.252;2023-05-10T06:43:12;18.30;49.70
439;DHT22;206;48.782;9.252;2023-05-10T06:45:38;18.30;50.20
439;DHT22;206;48.782;9.252;2023-05-10T06:48:03;18.30;49.00
439;DHT22;206;48.782;9.252;2023-05-10T06:50:29;18.20;48.10
439;DHT22;206;48.782;9.252;2023-05-10T06:52:55;18.20;47.80
439;DHT22;206;48.782;9.252;2023-05-10T06:55:21;18.10;48.90
439;DHT22;206;48.782;9.252;2023-05-10T06:57:46;18.10;50.90
439;DHT22;206;48.782;9.252;2023-05-10T07:00:13;18.10;52.30
439;DHT22;206;48.782;9.252;2023-05-10T07:02:39;18.10;52.50
439;DHT22;206;48.782;9.252;2023-05-10T07:05:05;18.10;50.90
439;DHT22;206;48.782;9.252;2023-05-10T07:07:30;18.00;49.80
439;DHT22;206;48.782;9.252;2023-05-10T07:09:56;17.80;50.30
439;DHT22;206;48.782;9.252;2023-05-10T07:12:23;17.80;50.60
439;DHT22;206;48.782;9.252;2023-05-10T07:14:48;17.90;50.70
439;DHT22;206;48.782;9.252;2023-05-10T07:17:14;17.90;50.70
439;DHT22;206;48.782;9.252;2023-05-10T07:19:40;17.90;49.70
439;DHT22;206;48.782;9.252;2023-05-10T07:22:05;17.90;49.60
439;DHT22;206;48.782;9.252;2023-05-10T07:24:32;18.00;49.30
439;DHT22;206;48.782;9.252;2023-05-10T07:26:58;18.30;49.00
439;DHT22;206;48.782;9.252;2023-05-10T07:29:23;18.50;46.30
439;DHT22;206;48.782;9.252;2023-05-10T07:31:49;18.60;44.50
439;DHT22;206;48.782;9.252;2023-05-10T07:34:15;18.80;44.70
439;DHT22;206;48.782;9.252;2023-05-10T07:36:40;18.90;43.50
439;DHT22;206;48.782;9.252;2023-05-10T07:39:06;19.10;43.50
439;DHT22;206;48.782;9.252;2023-05-10T07:41:32;19.30;43.30
439;DHT22;206;48.782;9.252;2023-05-10T07:43:58;19.50;42.40
439;DHT22;206;48.782;9.252;2023-05-10T07:46:23;19.60;42.30
439;DHT22;206;48.782;9.252;2023-05-10T07:48:49;19.80;41.30
439;DHT22;206;48.782;9.252;2023-05-10T07:51:15;19.90;41.00
439;DHT22;206;48.782;9.252;2023-05-10T07:53:40;19.90;38.70
439;DHT22;206;48.782;9.252;2023-05-10T07:56:27;19.90;39.00
439;DHT22;206;48.782;9.252;2023-05-10T07:58:55;20.00;40.30
439;DHT22;206;48.782;9.252;2023-05-10T08:01:21;20.10;39.10
439;DHT22;206;48.782;9.252;2023-05-10T08:03:46;20.10;38.10
439;DHT22;206;48.782;9.252;2023-05-10T08:06:12;20.00;38.00
439;DHT22;206;48.782;9.252;2023-05-10T08:08:38;20.10;37.90
439;DHT22;206;48.782;9.252;2023-05-10T08:11:04;20.00;35.80
439;DHT22;206;48.782;9.252;2023-05-10T08:13:29;19.70;34.30
439;DHT22;206;48.782;9.252;2023-05-10T08:15:56;19.40;33.90
439;DHT22;206;48.782;9.252;2023-05-10T08:18:22;19.30;34.20
439;DHT22;206;48.782;9.252;2023-05-10T08:20:47;19.10;34.30
439;DHT22;206;48.782;9.252;2023-05-10T08:23:13;18.90;35.40
439;DHT22;206;48.782;9.252;2023-05-10T08:25:39;18.60;35.00
439;DHT22;206;48.782;9.252;2023-05-10T08:28:05;18.50;35.20
439;DHT22;206;48.782;9.252;2023-05-10T08:30:30;18.40;36.60
439;DHT22;206;48.782;9.252;2023-05-10T08:32:56;18.40;37.60
439;DHT22;206;48.782;9.252;2023-05-10T08:35:22;18.50;37.80
439;DHT22;206;48.782;9.252;2023-05-10T08:37:47;18.70;37.50
439;DHT22;206;48.782;9.252;2023-05-10T08:40:14;18.90;36.60
439;DHT22;206;48.782;9.252;2023-05-10T08:42:44;19.00;35.50
439;DHT22;206;48.782;9.252;2023-05-10T08:45:11;19.10;35.30
439;DHT22;206;48.782;9.252;2023-05-10T08:47:37;19.00;35.20
439;DHT22;206;48.782;9.252;2023-05-10T08:50:04;19.00;35.90
439;DHT22;206;48.782;9.252;2023-05-10T08:52:32;19.00;35.70
439;DHT22;206;48.782;9.252;2023-05-10T08:55:02;19.10;35.10
439;DHT22;206;48.782;9.252;2023-05-10T08:57:27;19.10;34.30
439;DHT22;206;48.782;9.252;2023-05-10T08:59:53;19.10;34.00
439;DHT22;206;48.782;9.252;2023-05-10T09:02:20;19.20;33.40
439;DHT22;206;48.782;9.252;2023-05-10T09:04:46;19.40;32.00
439;DHT22;206;48.782;9.252;2023-05-10T09:07:12;19.60;31.60
439;DHT22;206;48.782;9.252;2023-05-10T09:09:38;19.70;29.90
439;DHT22;206;48.782;9.252;2023-05-10T09:12:04;19.80;30.30
439;DHT22;206;48.782;9.252;2023-05-10T09:14:30;19.90;29.90
439;DHT22;206;48.782;9.252;2023-05-10T09:16:58;19.90;29.20
439;DHT22;206;48.782;9.252;2023-05-10T09:19:23;19.80;28.70
439;DHT22;206;48.782;9.252;2023-05-10T09:21:49;19.80;29.40
439;DHT22;206;48.782;9.252;2023-05-10T09:24:15;20.10;29.00
439;DHT22;206;48.782;9.252;2023-05-10T09:26:46;20.20;28.80
439;DHT22;206;48.782;9.252;2023-05-10T09:29:14;20.30;28.20
439;DHT22;206;48.782;9.252;2023-05-10T09:31:50;20.40;28.70
439;DHT22;206;48.782;9.252;2023-05-10T09:34:22;20.60;27.50
439;DHT22;206;48.782;9.252;2023-05-10T09:36:57;20.60;26.50
439;DHT22;206;48.782;9.252;2023-05-10T09:39:36;20.40;26.10
439;DHT22;206;48.782;9.252;2023-05-10T09:42:07;20.20;26.70
439;DHT22;206;48.782;9.252;2023-05-10T09:44:33;20.20;27.10
439;DHT22;206;48.782;9.252;2023-05-10T09:47:03;20.20;26.80
439;DHT22;206;48.782;9.252;2023-05-10T09:49:28;20.40;26.20
439;DHT22;206;48.782;9.252;2023-05-10T09:52:04;20.70;26.00
439;DHT22;206;48.782;9.252;2023-05-10T09:54:31;20.80;25.70
439;DHT22;206;48.782;9.252;2023-05-10T09:56:57;21.00;24.50
439;DHT22;206;48.782;9.252;2023-05-10T09:59:25;21.10;24.60
439;DHT22;206;48.782;9.252;2023-05-10T10:01:52;21.30;24.50
439;DHT22;206;48.782;9.252;2023-05-10T10:04:19;21.30;24.70
439;DHT22;206;48.782;9.252;2023-05-10T10:06:45;21.40;24.50
439;DHT22;206;48.782;9.252;2023-05-10T10:09:11;21.30;24.50
439;DHT22;206;48.782;9.252;2023-05-10T10:11:38;21.40;24.80
439;DHT22;206;48.782;9.252;2023-05-10T10:14:05;21.30;24.70
439;DHT22;206;48.782;9.252;2023-05-10T10:16:31;21.30;24.70
439;DHT22;206;48.782;9.252;2023-05-10T10:18:57;21.20;24.60
439;DHT22;206;48.782;9.252;2023-05-10T10:21:23;21.20;24.40
439;DHT22;206;48.782;9.252;2023-05-10T10:23:49;21.20;24.70
439;DHT22;206;48.782;9.252;2023-05-10T10:26:16;21.10;23.80
439;DHT22;206;48.782;9.252;2023-05-10T10:31:39;20.20;26.10
439;DHT22;206;48.782;9.252;2023-05-10T10:34:06;20.00;26.20
439;DHT22;206;48.782;9.252;2023-05-10T10:36:40;19.90;26.50
439;DHT22;206;48.782;9.252;2023-05-10T10:39:10;19.80;27.60
439;DHT22;206;48.782;9.252;2023-05-10T10:41:49;19.80;27.10
439;DHT22;206;48.782;9.252;2023-05-10T10:44:35;19.90;27.00
439;DHT22;206;48.782;9.252;2023-05-10T10:47:10;20.00;27.10
439;DHT22;206;48.782;9.252;2023-05-10T10:49:51;20.20;26.40
439;DHT22;206;48.782;9.252;2023-05-10T10:54:59;20.70;25.10
439;DHT22;206;48.782;9.252;2023-05-10T10:57:25;20.40;26.50
439;DHT22;206;48.782;9.252;2023-05-10T10:59:56;20.10;27.80
439;DHT22;206;48.782;9.252;2023-05-10T11:05:26;19.70;27.00
439;DHT22;206;48.782;9.252;2023-05-10T11:08:01;19.40;27.70
439;DHT22;206;48.782;9.252;2023-05-10T11:10:32;19.20;27.10
439;DHT22;206;48.782;9.252;2023-05-10T11:13:08;19.10;25.70
439;DHT22;206;48.782;9.252;2023-05-10T11:15:48;19.10;24.50
439;DHT22;206;48.782;9.252;2023-05-10T11:18:19;19.20;24.20
439;DHT22;206;48.782;9.252;2023-05-10T11:20:51;19.20;23.30
439;DHT22;206;48.782;9.252;2023-05-10T11:23:17;19.20;23.30
439;DHT22;206;48.782;9.252;2023-05-10T11:25:48;19.00;23.10
439;DHT22;206;48.782;9.252;2023-05-10T11:28:13;18.80;23.50
439;DHT22;206;48.782;9.252;2023-05-10T11:30:40;18.70;24.20
439;DHT22;206;48.782;9.252;2023-05-10T11:33:07;18.70;24.60
439;DHT22;206;48.782;9.252;2023-05-10T11:35:42;18.90;24.20
439;DHT22;206;48.782;9.252;2023-05-10T11:38:09;18.90;24.80
439;DHT22;206;48.782;9.252;2023-05-10T11:40:35;19.00;25.10
439;DHT22;206;48.782;9.252;2023-05-10T11:43:01;19.10;25.00
439;DHT22;206;48.782;9.252;2023-05-10T11:45:28;19.20;25.10
439;DHT22;206;48.782;9.252;2023-05-10T11:47:55;19.30;24.60
439;DHT22;206;48.782;9.252;2023-05-10T11:50:22;19.30;24.70
439;DHT22;206;48.782;9.252;2023-05-10T11:52:51;19.50;24.60
439;DHT22;206;48.782;9.252;2023-05-10T11:55:17;19.70;24.20
439;DHT22;206;48.782;9.252;2023-05-10T11:57:43;19.90;23.80
439;DHT22;206;48.782;9.252;2023-05-10T12:00:12;19.90;23.20
439;DHT22;206;48.782;9.252;2023-05-10T12:02:37;19.80;22.60
439;DHT22;206;48.782;9.252;2023-05-10T12:05:04;19.70;22.80
439;DHT22;206;48.782;9.252;2023-05-10T12:07:30;19.60;22.90
439;DHT22;206;48.782;9.252;2023-05-10T12:12:39;19.40;23.40
439;DHT22;206;48.782;9.252;2023-05-10T12:15:05;19.30;23.80
439;DHT22;206;48.782;9.252;2023-05-10T12:17:37;19.20;23.80
439;DHT22;206;48.782;9.252;2023-05-10T12:20:14;19.20;24.30
439;DHT22;206;48.782;9.252;2023-05-10T12:22:43;19.20;24.60
439;DHT22;206;48.782;9.252;2023-05-10T12:25:09;19.20;24.40
439;DHT22;206;48.782;9.252;2023-05-10T12:27:35;19.30;23.70
439;DHT22;206;48.782;9.252;2023-05-10T12:30:02;19.30;23.70
439;DHT22;206;48.782;9.252;2023-05-10T12:32:40;19.30;24.10
439;DHT22;206;48.782;9.252;2023-05-10T12:35:06;19.20;23.90
439;DHT22;206;48.782;9.252;2023-05-10T12:37:32;19.40;24.20
439;DHT22;206;48.782;9.252;2023-05-10T12:40:01;19.50;23.50
439;DHT22;206;48.782;9.252;2023-05-10T12:42:27;19.50;23.80
439;DHT22;206;48.782;9.252;2023-05-10T12:44:56;19.70;23.70
439;DHT22;206;48.782;9.252;2023-05-10T12:47:22;19.90;23.60
439;DHT22;206;48.782;9.252;2023-05-10T12:49:48;20.10;23.30
439;DHT22;206;48.782;9.252;2023-05-10T12:52:13;20.10;21.90
439;DHT22;206;48.782;9.252;2023-05-10T12:54:39;20.00;21.90
439;DHT22;206;48.782;9.252;2023-05-10T12:57:05;20.00;21.50
439;DHT22;206;48.782;9.252;2023-05-10T12:59:30;19.90;21.10
439;DHT22;206;48.782;9.252;2023-05-10T13:01:57;20.00;20.60
439;DHT22;206;48.782;9.252;2023-05-10T13:04:23;20.10;19.70
439;DHT22;206;48.782;9.252;2023-05-10T13:06:50;20.20;20.20
439;DHT22;206;48.782;9.252;2023-05-10T13:09:16;20.20;20.10
439;DHT22;206;48.782;9.252;2023-05-10T13:11:42;20.10;20.30
439;DHT22;206;48.782;9.252;2023-05-10T13:14:07;20.10;20.70
439;DHT22;206;48.782;9.252;2023-05-10T13:16:33;20.00;20.80
439;DHT22;206;48.782;9.252;2023-05-10T13:18:58;19.80;21.30
439;DHT22;206;48.782;9.252;2023-05-10T13:21:24;19.70;22.00
439;DHT22;206;48.782;9.252;2023-05-10T13:23:50;19.50;22.20
439;DHT22;206;48.782;9.252;2023-05-10T13:26:16;19.40;22.70
439;DHT22;206;48.782;9.252;2023-05-10T13:28:42;19.40;22.60
439;DHT22;206;48.782;9.252;2023-05-10T13:31:07;19.40;23.00
439;DHT22;206;48.782;9.252;2023-05-10T13:33:33;19.30;22.50
439;DHT22;206;48.782;9.252;2023-05-10T13:35:59;19.30;22.40
439;DHT22;206;48.782;9.252;2023-05-10T13:38:24;19.30;22.60
439;DHT22;206;48.782;9.252;2023-05-10T13:40:50;19.40;22.80
439;DHT22;206;48.782;9.252;2023-05-10T13:43:18;19.60;22.70
439;DHT22;206;48.782;9.252;2023-05-10T13:45:44;19.80;22.50
439;DHT22;206;48.782;9.252;2023-05-10T13:48:09;20.00;21.80
439;DHT22;206;48.782;9.252;2023-05-10T13:50:35;20.20;20.80
439;DHT22;206;48.782;9.252;2023-05-10T13:53:00;20.50;20.40
439;DHT22;206;48.782;9.252;2023-05-10T13:55:26;20.80;19.70
439;DHT22;206;48.782;9.252;2023-05-10T13:57:52;21.10;19.50
439;DHT22;206;48.782;9.252;2023-05-10T14:00:17;21.20;19.70
439;DHT22;206;48.782;9.252;2023-05-10T14:02:43;21.20;18.70
439;DHT22;206;48.782;9.252;2023-05-10T14:05:09;21.30;18.50
439;DHT22;206;48.782;9.252;2023-05-10T14:07:34;21.30;18.80
439;DHT22;206;48.782;9.252;2023-05-10T14:10:00;21.30;18.80
439;DHT22;206;48.782;9.252;2023-05-10T14:12:27;21.20;19.00
439;DHT22;206;48.782;9.252;2023-05-10T14:14:52;21.10;18.70
439;DHT22;206;48.782;9.252;2023-05-10T14:17:18;21.10;18.90
439;DHT22;206;48.782;9.252;2023-05-10T14:19:44;21.20;18.40
439;DHT22;206;48.782;9.252;2023-05-10T14:22:10;20.80;18.80
439;DHT22;206;48.782;9.252;2023-05-10T14:24:35;20.60;18.50
439;DHT22;206;48.782;9.252;2023-05-10T14:27:01;20.60;19.30
439;DHT22;206;48.782;9.252;2023-05-10T14:29:27;20.80;20.20
439;DHT22;206;48.782;9.252;2023-05-10T14:31:52;20.90;17.40
439;DHT22;206;48.782;9.252;2023-05-10T14:34:18;20.80;16.40
439;DHT22;206;48.782;9.252;2023-05-10T14:36:44;20.80;15.40
439;DHT22;206;48.782;9.252;2023-05-10T14:39:09;20.80;16.00
439;DHT22;206;48.782;9.252;2023-05-10T14:41:35;20.90;16.00
439;DHT22;206;48.782;9.252;2023-05-10T14:44:01;20.80;16.00
439;DHT22;206;48.782;9.252;2023-05-10T14:46:28;20.90;16.00
439;DHT22;206;48.782;9.252;2023-05-10T14:48:55;20.80;16.00
439;DHT22;206;48.782;9.252;2023-05-10T14:51:20;20.50;16.40
439;DHT22;206;48.782;9.252;2023-05-10T14:53:48;20.30;17.70
439;DHT22;206;48.782;9.252;2023-05-10T14:56:14;20.40;17.00
439;DHT22;206;48.782;9.252;2023-05-10T14:58:40;20.50;17.20
439;DHT22;206;48.782;9.252;2023-05-10T15:01:05;20.50;17.30
439;DHT22;206;48.782;9.252;2023-05-10T15:03:31;20.50;16.80
439;DHT22;206;48.782;9.252;2023-05-10T15:05:56;20.30;17.20
439;DHT22;206;48.782;9.252;2023-05-10T15:08:23;20.10;17.60
439;DHT22;206;48.782;9.252;2023-05-10T15:10:50;20.10;18.20
439;DHT22;206;48.782;9.252;2023-05-10T15:13:15;20.20;17.90
439;DHT22;206;48.782;9.252;2023-05-10T15:15:41;20.20;17.10
439;DHT22;206;48.782;9.252;2023-05-10T15:18:11;20.00;17.70
439;DHT22;206;48.782;9.252;2023-05-10T15:20:37;19.90;17.80
439;DHT22;206;48.782;9.252;2023-05-10T15:23:02;20.00;17.60
439;DHT22;206;48.782;9.252;2023-05-10T15:25:28;20.20;17.10
439;DHT22;206;48.782;9.252;2023-05-10T15:27:54;20.40;17.10
439;DHT22;206;48.782;9.252;2023-05-10T15:30:20;20.50;17.40
439;DHT22;206;48.782;9.252;2023-05-10T15:32:46;20.60;17.20
439;DHT22;206;48.782;9.252;2023-05-10T15:35:11;20.50;17.30
439;DHT22;206;48.782;9.252;2023-05-10T15:37:37;20.20;17.90
439;DHT22;206;48.782;9.252;2023-05-10T15:40:03;20.10;18.10
439;DHT22;206;48.782;9.252;2023-05-10T15:42:30;20.20;18.20
439;DHT22;206;48.782;9.252;2023-05-10T15:44:56;20.30;18.10
439;DHT22;206;48.782;9.252;2023-05-10T15:47:21;20.30;18.20
439;DHT22;206;48.782;9.252;2023-05-10T15:49:47;20.40;18.00
439;DHT22;206;48.782;9.252;2023-05-10T15:52:12;20.40;18.10
439;DHT22;206;48.782;9.252;2023-05-10T15:54:38;20.40;18.20
439;DHT22;206;48.782;9.252;2023-05-10T15:57:04;20.40;18.00
439;DHT22;206;48.782;9.252;2023-05-10T15:59:31;20.50;17.80
439;DHT22;206;48.782;9.252;2023-05-10T16:01:56;20.60;18.00
439;DHT22;206;48.782;9.252;2023-05-10T16:04:22;20.50;17.90
439;DHT22;206;48.782;9.252;2023-05-10T16:06:48;20.30;17.80
439;DHT22;206;48.782;9.252;2023-05-10T16:09:13;20.20;18.20
439;DHT22;206;48.782;9.252;2023-05-10T16:11:41;20.10;18.60
439;DHT22;206;48.782;9.252;2023-05-10T16:14:07;20.10;18.90
439;DHT22;206;48.782;9.252;2023-05-10T16:16:34;20.00;18.70
439;DHT22;206;48.782;9.252;2023-05-10T16:18:59;19.90;18.70
439;DHT22;206;48.782;9.252;2023-05-10T16:21:26;19.80;19.50
439;DHT22;206;48.782;9.252;2023-05-10T16:23:53;19.80;19.70
439;DHT22;206;48.782;9.252;2023-05-10T16:26:19;19.90;20.10
439;DHT22;206;48.782;9.252;2023-05-10T16:28:46;19.80;18.80
439;DHT22;206;48.782;9.252;2023-05-10T16:31:11;19.80;18.30
439;DHT22;206;48.782;9.252;2023-05-10T16:33:37;19.80;18.10
439;DHT22;206;48.782;9.252;2023-05-10T16:36:03;19.80;17.50
439;DHT22;206;48.782;9.252;2023-05-10T16:38:30;19.80;17.00
439;DHT22;206;48.782;9.252;2023-05-10T16:40:56;19.90;16.90
439;DHT22;206;48.782;9.252;2023-05-10T16:43:21;19.90;17.20
439;DHT22;206;48.782;9.252;2023-05-10T16:45:47;19.90;16.90
439;DHT22;206;48.782;9.252;2023-05-10T16:48:13;19.90;16.80
439;DHT22;206;48.782;9.252;2023-05-10T16:50:42;20.00;17.20
439;DHT22;206;48.782;9.252;2023-05-10T16:53:08;20.00;17.20
439;DHT22;206;48.782;9.252;2023-05-10T16:55:33;20.00;17.60